Pacific Fantasy — A8MV6 — position and weather

sailwx.info

Track history (hours):
 
Tides and Currents Weather Stations Pressure Air Temp Water Temp Dewpoint Dewpoint Depression Visibility Wind Speed Wind Dir Waves Ship Positions

Pacific Fantasy

Last reported at 2015-Aug-02 00:04 UTC. Time now 2015-Aug-02 14:24 UTC.
Position N 01°15' E 104°07'.

Length 180 m; draft 6.5 m.

Type: Cargo ship. MMSI: 636013744.

Date/timePositionNaut miles runAvg speedWind from/ knotsBaromVisibWave heightAir tempDewpointWater temp
2015-Aug-02 00:04N 01°15' E 104°07'611.1
2015-Aug-01 23:33N 01°15' E 104°01'8 7.5
2015-Aug-01 22:33N 01°16' E 103°54'1 0.5
2015-Aug-01 21:32N 01°16' E 103°54'0 0.1
2015-Aug-01 20:29N 01°16' E 103°54'0 0.0
2015-Aug-01 19:29N 01°16' E 103°54'0 0.0
2015-Aug-01 18:32N 01°16' E 103°54'0 0.0
2015-Aug-01 17:32N 01°16' E 103°54'0 0.1
2015-Aug-01 16:28N 01°16' E 103°54'0 0.1
2015-Aug-01 15:31N 01°16' E 103°54'0 0.1
2015-Aug-01 14:31N 01°16' E 103°54'0 0.0
2015-Aug-01 13:25N 01°16' E 103°54'1 1.6
2015-Aug-01 12:33N 01°15' E 103°54'5 4.5
2015-Aug-01 11:31N 01°11' E 103°51'146 9.8
2015-Jul-31 20:33N 02°21' E 101°42'17 8.7
2015-Jul-31 18:33N 02°32' E 101°28'16 8.0
2015-Jul-31 16:33N 02°40' E 101°15'17 8.4
2015-Jul-31 14:33N 02°48' E 100°60'17 8.6
2015-Jul-31 12:32N 02°60' E 100°47'20 9.7
2015-Jul-31 10:29N 03°13' E 100°32'  
Track history (hours):
 
Tides and Currents Weather Stations Pressure Air Temp Water Temp Dewpoint Dewpoint Depression Visibility Wind Speed Wind Dir Waves Ship Positions

Pacific Fantasy

Last reported at 2015-Aug-02 00:04 UTC. Time now 2015-Aug-02 14:24 UTC.
Position N 01°15' E 104°07'.

Length 180 m; draft 6.5 m.

Type: Cargo ship. MMSI: 636013744.

Date/timePositionNaut miles runAvg speedWind from/ knotsBaromVisibWave heightAir tempDewpointWater temp
2015-Aug-02 00:04N 01°15' E 104°07'611.1
2015-Aug-01 23:33N 01°15' E 104°01'8 7.5
2015-Aug-01 22:33N 01°16' E 103°54'1 0.5
2015-Aug-01 21:32N 01°16' E 103°54'0 0.1
2015-Aug-01 20:29N 01°16' E 103°54'0 0.0
2015-Aug-01 19:29N 01°16' E 103°54'0 0.0
2015-Aug-01 18:32N 01°16' E 103°54'0 0.0
2015-Aug-01 17:32N 01°16' E 103°54'0 0.1
2015-Aug-01 16:28N 01°16' E 103°54'0 0.1
2015-Aug-01 15:31N 01°16' E 103°54'0 0.1
2015-Aug-01 14:31N 01°16' E 103°54'0 0.0
2015-Aug-01 13:25N 01°16' E 103°54'1 1.6
2015-Aug-01 12:33N 01°15' E 103°54'5 4.5
2015-Aug-01 11:31N 01°11' E 103°51'146 9.8
2015-Jul-31 20:33N 02°21' E 101°42'17 8.7
2015-Jul-31 18:33N 02°32' E 101°28'16 8.0
2015-Jul-31 16:33N 02°40' E 101°15'17 8.4
2015-Jul-31 14:33N 02°48' E 100°60'17 8.6
2015-Jul-31 12:32N 02°60' E 100°47'20 9.7
2015-Jul-31 10:29N 03°13' E 100°32'  

Dump ship's entire track history